Time;durP1;ratioP1;P1;durP2;ratioP2;P2;SDS_P1;SDS_P2;PMS_P1;PMS_P2;Temp;Humidity;BMP_temperature;BMP_pressure;BME280_temperature;BME280_humidity;BME280_pressure;Samples;Min_cycle;Max_cycle;Signal;HPM_P1;HPM_P2
2022/12/16 00:01:26;;;;;;;0.50;0.50;;;;;;;3.52;90.63;98413.84;4455588;32;35058;-74
2022/12/16 00:03:56;;;;;;;1.75;1.62;;;;;;;3.29;92.34;98411.19;4455417;32;34878;-73
2022/12/16 00:06:26;;;;;;;1.50;1.45;;;;;;;3.51;91.63;98406.97;4441608;32;33445;-78
2022/12/16 00:08:55;;;;;;;0.57;0.57;;;;;;;3.74;90.49;98400.16;4455470;32;34007;-76
2022/12/16 00:11:23;;;;;;;0.82;0.82;;;;;;;3.40;92.37;98394.91;4455417;32;35590;-76
2022/12/16 00:13:52;;;;;;;0.70;0.70;;;;;;;3.18;92.86;98396.59;4455332;32;34559;-75
2022/12/16 00:16:22;;;;;;;2.95;2.78;;;;;;;3.06;93.94;98388.81;4454419;32;32685;-73
2022/12/16 00:18:50;;;;;;;0.60;0.60;;;;;;;3.39;93.53;98382.06;4454232;32;33770;-76
2022/12/16 00:21:19;;;;;;;1.08;1.08;;;;;;;3.30;93.46;98387.16;4455221;32;35176;-75
2022/12/16 00:23:48;;;;;;;0.90;0.90;;;;;;;3.59;91.62;98388.09;4455109;32;34677;-73
2022/12/16 00:26:15;;;;;;;2.20;1.83;;;;;;;3.43;92.17;98394.09;4455253;32;33453;-69
2022/12/16 00:28:44;;;;;;;1.17;1.17;;;;;;;3.84;89.69;98390.72;4455296;32;34695;-76
2022/12/16 00:31:12;;;;;;;3.62;3.33;;;;;;;3.93;89.83;98377.84;4455456;32;34915;-75
2022/12/16 00:33:40;;;;;;;0.60;0.60;;;;;;;3.73;90.46;98382.12;4455150;32;34487;-76
2022/12/16 00:36:09;;;;;;;0.70;0.70;;;;;;;3.70;91.54;98377.81;4455456;32;33650;-74
2022/12/16 00:38:37;;;;;;;0.98;0.98;;;;;;;3.32;92.55;98383.75;4455143;32;33953;-75
2022/12/16 00:41:05;;;;;;;0.60;0.60;;;;;;;3.26;93.63;98381.16;4455137;32;35019;-73
2022/12/16 00:43:34;;;;;;;1.52;1.10;;;;;;;3.49;92.87;98378.63;4454632;32;35156;-73
2022/12/16 00:46:03;;;;;;;0.85;0.85;;;;;;;3.41;93.22;98385.50;4455199;32;33688;-74
2022/12/16 00:48:32;;;;;;;0.50;0.50;;;;;;;3.66;91.62;98377.84;4455180;32;33926;-74
2022/12/16 00:51:00;;;;;;;0.90;0.90;;;;;;;3.51;92.36;98376.06;4455104;32;35964;-71
2022/12/16 00:53:28;;;;;;;1.05;0.98;;;;;;;3.45;92.49;98369.22;4455030;32;35307;-75
2022/12/16 00:56:08;;;;;;;1.05;0.90;;;;;;;3.55;93.56;98365.81;4455105;32;33409;-75
2022/12/16 00:58:37;;;;;;;3.85;1.30;;;;;;;3.71;92.44;98368.41;4441364;32;33975;-71
2022/12/16 01:01:05;;;;;;;0.50;0.50;;;;;;;3.50;93.57;98364.09;4455045;32;35159;-77
2022/12/16 01:03:34;;;;;;;0.95;0.95;;;;;;;3.77;91.89;98363.25;4455070;32;35327;-74
2022/12/16 01:06:12;;;;;;;0.73;0.73;;;;;;;3.71;93.05;98352.94;4455022;32;33546;-74
2022/12/16 01:08:47;;;;;;;0.70;0.70;;;;;;;3.52;93.26;98342.62;4455041;32;34698;-70
2022/12/16 01:11:17;;;;;;;2.40;2.25;;;;;;;3.76;92.57;98341.78;4455021;32;35933;-76
2022/12/16 01:13:49;;;;;;;0.62;0.62;;;;;;;3.80;92.22;98327.19;4454938;32;34470;-70
2022/12/16 01:16:19;;;;;;;1.50;1.40;;;;;;;3.73;93.49;98328.06;4441395;32;33634;-73
2022/12/16 01:18:47;;;;;;;0.65;0.65;;;;;;;3.77;92.51;98317.75;4454954;32;33732;-74
2022/12/16 01:21:15;;;;;;;0.50;0.50;;;;;;;3.68;91.99;98307.44;4454942;32;35830;-73
2022/12/16 01:23:44;;;;;;;0.50;0.50;;;;;;;3.80;92.07;98301.44;4454729;32;35378;-73
2022/12/16 01:26:15;;;;;;;0.60;0.60;;;;;;;3.79;91.96;98290.31;4453872;32;33453;-77
2022/12/16 01:28:46;;;;;;;1.35;0.93;;;;;;;3.57;92.60;98293.72;4441053;32;34030;-74
2022/12/16 01:31:17;;;;;;;1.27;1.17;;;;;;;4.00;92.21;98283.41;4441103;32;35074;-72
2022/12/16 01:33:46;;;;;;;1.27;1.17;;;;;;;3.58;93.19;98275.72;4441038;32;35068;-77
2022/12/16 01:36:14;;;;;;;1.15;1.10;;;;;;;3.48;94.82;98279.16;4454801;32;34504;-71
2022/12/16 01:38:43;;;;;;;0.60;0.60;;;;;;;3.80;93.44;98270.56;4454764;32;34050;-75
2022/12/16 01:41:14;;;;;;;0.77;0.77;;;;;;;3.93;92.17;98261.94;4454783;32;35047;-73
2022/12/16 01:43:43;;;;;;;1.12;1.12;;;;;;;4.42;89.83;98260.97;4440683;32;34308;-74
2022/12/16 01:46:15;;;;;;;0.50;0.50;;;;;;;4.03;91.43;98251.66;4454814;32;33501;-69
2022/12/16 01:49:07;;;;;;;0.52;0.52;;;;;;;3.68;94.31;98245.66;4440858;32;34566;-74
2022/12/16 01:51:38;;;;;;;1.10;0.85;;;;;;;3.81;93.11;98223.31;4441160;32;36022;-70
2022/12/16 01:54:39;;;;;;;0.70;0.70;;;;;;;3.61;94.99;98223.38;4440415;32;34343;-73
2022/12/16 01:57:14;;;;;;;1.95;1.85;;;;;;;4.17;92.68;98221.53;4416019;32;32885;-71
2022/12/16 01:59:44;;;;;;;0.60;0.60;;;;;;;3.87;93.30;98202.72;4454580;32;34736;-69
2022/12/16 02:02:13;;;;;;;0.60;0.60;;;;;;;3.82;94.15;98191.59;4440893;32;35008;-75
2022/12/16 02:05:19;;;;;;;0.68;0.68;;;;;;;3.69;95.41;98184.72;4440834;32;34129;-69
2022/12/16 02:07:32;;;;;;;0.95;0.95;;;;;;;3.90;94.08;98181.25;4454585;32;33898;-72
2022/12/16 02:10:01;;;;;;;0.57;0.57;;;;;;;4.17;92.35;98162.28;4454480;32;33769;-69
2022/12/16 02:12:47;;;;;;;1.02;1.02;;;;;;;4.25;91.67;98151.94;4454500;32;34944;-76
2022/12/16 02:15:44;;;;;;;2.90;0.98;;;;;;;3.82;92.91;98127.22;4454470;32;34443;-74
2022/12/16 02:18:35;;;;;;;0.57;0.57;;;;;;;3.91;93.24;98114.28;4434423;32;33324;-75
2022/12/16 02:21:22;;;;;;;1.42;1.33;;;;;;;4.08;93.33;98105.66;4454422;32;33890;-72
2022/12/16 02:24:02;;;;;;;0.55;0.55;;;;;;;3.83;93.78;98090.31;4454214;32;35087;-69
2022/12/16 02:26:33;;;;;;;0.60;0.60;;;;;;;3.97;93.99;98088.53;4454305;32;34512;-70
2022/12/16 02:29:20;;;;;;;0.52;0.52;;;;;;;3.82;95.37;98080.87;4454366;32;34424;-69
2022/12/16 02:31:55;;;;;;;1.50;1.40;;;;;;;3.55;95.59;98087.81;4454349;32;34594;-75
2022/12/16 02:34:30;;;;;;;0.60;0.60;;;;;;;3.61;97.32;98084.38;4454471;32;35605;-73
2022/12/16 02:37:10;;;;;;;0.88;0.88;;;;;;;3.86;97.26;98090.28;4454406;32;35095;-71
2022/12/16 02:39:42;;;;;;;2.37;1.45;;;;;;;3.75;96.86;98092.06;4454276;32;33851;-74
2022/12/16 02:42:30;;;;;;;0.93;0.93;;;;;;;3.80;95.25;98100.63;4440297;32;34024;-73
2022/12/16 02:45:30;;;;;;;0.50;0.50;;;;;;;3.91;96.30;98104.00;4454153;32;35901;-73
2022/12/16 02:47:59;;;;;;;0.80;0.80;;;;;;;4.24;94.66;98107.28;4412078;32;34332;-74
2022/12/16 02:50:44;;;;;;;0.62;0.62;;;;;;;4.20;94.29;98125.34;4453959;32;33517;-72
2022/12/16 02:53:13;;;;;;;0.60;0.60;;;;;;;3.86;96.40;98131.47;4440491;32;33897;-75
2022/12/16 02:56:10;;;;;;;0.70;0.70;;;;;;;3.77;95.65;98137.50;4452709;32;34644;-72
2022/12/16 02:58:57;;;;;;;1.20;1.20;;;;;;;4.09;95.20;98121.09;4440113;32;34538;-73
2022/12/16 03:01:41;;;;;;;1.53;1.43;;;;;;;4.06;94.95;98117.66;4454052;32;34244;-74
2022/12/16 03:04:14;;;;;;;0.77;0.77;;;;;;;4.01;94.26;98109.09;4440119;32;33756;-74
2022/12/16 03:06:46;;;;;;;0.85;0.85;;;;;;;4.28;93.09;98103.81;4454773;32;36121;-70
2022/12/16 03:09:18;;;;;;;1.20;1.15;;;;;;;4.39;92.55;98084.88;4455961;32;34583;-73
2022/12/16 03:11:47;;;;;;;1.45;1.40;;;;;;;3.84;96.03;98066.25;4442087;32;34245;-73
2022/12/16 03:14:17;;;;;;;0.60;0.60;;;;;;;4.02;94.92;98060.16;4442001;32;33780;-73
2022/12/16 03:16:46;;;;;;;0.90;0.90;;;;;;;3.64;96.67;98057.78;4441829;32;34368;-70
2022/12/16 03:19:15;;;;;;;0.70;0.70;;;;;;;3.72;95.76;98040.56;4455637;32;35256;-72
2022/12/16 03:21:55;;;;;;;0.60;0.60;;;;;;;3.35;97.35;98049.28;4454458;32;34347;-71
2022/12/16 03:24:24;;;;;;;3.17;2.97;;;;;;;3.81;97.86;98040.50;4441843;32;34600;-73
2022/12/16 03:26:58;;;;;;;0.70;0.70;;;;;;;3.87;96.38;98049.97;4455642;32;34911;-71
2022/12/16 03:29:35;;;;;;;0.60;0.60;;;;;;;3.80;97.22;98034.53;4442060;32;35085;-73
2022/12/16 03:32:11;;;;;;;2.50;1.85;;;;;;;3.88;96.15;98037.06;4441828;32;33591;-71
2022/12/16 03:34:41;;;;;;;0.62;0.62;;;;;;;3.47;98.31;98040.66;4441905;32;34693;-72
2022/12/16 03:37:11;;;;;;;0.80;0.80;;;;;;;3.77;96.57;98054.28;4428941;32;33642;-73
2022/12/16 03:39:44;;;;;;;0.65;0.65;;;;;;;3.65;96.41;98054.31;4441868;32;35104;-74
2022/12/16 03:42:14;;;;;;;1.35;1.25;;;;;;;3.55;98.93;98049.22;4441945;32;34277;-71
2022/12/16 03:44:45;;;;;;;0.52;0.52;;;;;;;3.40;100.00;98039.81;4441923;32;35312;-70
2022/12/16 03:47:13;;;;;;;1.52;1.52;;;;;;;3.76;99.53;98047.44;4441892;32;34965;-73
2022/12/16 03:49:50;;;;;;;0.80;0.80;;;;;;;3.51;99.58;98046.66;4455547;32;34462;-74
2022/12/16 03:52:18;;;;;;;1.23;1.15;;;;;;;3.88;97.51;98047.38;4455551;32;33351;-73
2022/12/16 03:54:46;;;;;;;0.73;0.70;;;;;;;3.97;97.26;98049.91;4455522;32;33926;-74
2022/12/16 03:57:15;;;;;;;1.50;1.40;;;;;;;4.17;96.26;98054.09;4455457;32;35169;-75
2022/12/16 03:59:43;;;;;;;0.70;0.70;;;;;;;3.83;97.29;98036.25;4455471;32;34648;-73
2022/12/16 04:02:11;;;;;;;0.70;0.70;;;;;;;4.31;94.31;98034.22;4455514;32;33472;-71
2022/12/16 04:04:40;;;;;;;0.55;0.55;;;;;;;4.43;94.02;98022.13;4455430;32;34718;-73
2022/12/16 04:07:20;;;;;;;0.90;0.90;;;;;;;3.80;95.62;98008.78;4455418;32;35971;-73
2022/12/16 04:09:49;;;;;;;1.65;0.82;;;;;;;3.92;95.92;98027.63;4455422;32;34476;-71
2022/12/16 04:26:21;;;;;;;0.60;0.60;;;;;;;3.95;94.80;98005.28;4455341;32;33875;-74
2022/12/16 04:28:49;;;;;;;0.80;0.80;;;;;;;4.12;97.51;97999.16;4441421;32;34944;-74
2022/12/16 04:31:17;;;;;;;0.60;0.60;;;;;;;4.32;96.09;98010.19;4455257;32;35210;-70
